Tucson, AZ

5:26 AM MST on January 27, 2015 (GMT -0700)
Sunrise Mountain Ridge | Change Station
CLOSE
Current Station
Personal Weather Station
Location: Tucson, AZ
Elevation: 2891 ft
Nearby Weather Stations

Elev 2891 ft 32.29 °N, 110.84 °W | Updated 2 minutes ago

Partly Cloudy
Partly Cloudy
54.1 °F
Feels Like 54.1 °F
N
2.0
Wind Variable Wind from ENE
Gusts 4.0 mph

Today
High -- | Low -- °F
--% Chance of Precip.
Yesterday
High -- | Low -- °F
Precip. -- in
7:20 AM 5:52 PM
First Quarter, 53% visible
Pressure 30.14 in
Visibility 10.0 miles
Clouds Few 4700 ft
Dew Point 42 °F
Humidity 63%
Rainfall -999.00 in
Snow Depth Not available.
UV 0 out of 12
Pollen 3.10 out of 12
Air Quality Not available.
Flu Activity Not available.
METAR KDMA 271158Z AUTO 12010KT 10SM FEW047 13/05 A3020 RMK AO2 SLP204 70001 T01310045 10131 20101 58001 $

More Conditions Fewer Conditions

Pressure 30.14 in
Visibility 10.0 miles
Clouds Few 4700 ft
Dew Point 42 °F
Humidity 63%
Rainfall -999.00 in
Snow Depth Not available.
UV 0 out of 12
Pollen 3.10 out of 12
Air Quality Not available.
Flu Activity Not available.
METAR KDMA 271158Z AUTO 12010KT 10SM FEW047 13/05 A3020 RMK AO2 SLP204 70001 T01310045 10131 20101 58001 $

More Conditions Fewer Conditions

Nowcast | as of 4:51 am MST on January 27, 2015

A lone shower south of Three Points will continue to move north toward Three Points and Ryan Field. Rainfall amounts will this shower will be light...mainly just a few hundredths of an inch. This shower will continue to move rapidly north at around 25 mph and may affect the Tucson Mountains through around sunrise.

×

10-Day Weather Forecast

Almanac

Astronomy

Jan. 27, 2015 Rise Set
Actual Time
Civil Twilight
Nautical Twilight
Astronomical Twilight
Moon
Length of Visible Light
Length of Day
Tomorrow will be .
, % of the Moon is Illuminated

Today's Extremes

State Highs State Lows

Community

WunderPhotos

Upload Photos

1,790,579 photos uploaded!

WunderBlogs® & News

Nearby

Air Quality

  Air Quality AQ Index Pollutant
Not available.

Snow Depth

Station Depth Elevation

Earthquake Activity

City Distance Mag. Time & Date
Minimum magnitude displayed is 2.5.

Coastal Water Temperatures

Place Temperature

Nearby Weather Stations